sensor_id;sensor_type;location;lat;lon;timestamp;P1;durP1;ratioP1;P2;durP2;ratioP2
53533;SDS011;39421;53.204;6.568;2022-10-31T00:02:20;21.20;;;12.80;;
53533;SDS011;39421;53.204;6.568;2022-10-31T00:04:46;23.80;;;13.67;;
53533;SDS011;39421;53.204;6.568;2022-10-31T00:07:11;23.07;;;13.80;;
53533;SDS011;39421;53.204;6.568;2022-10-31T00:09:37;21.87;;;13.63;;
53533;SDS011;39421;53.204;6.568;2022-10-31T00:12:03;21.30;;;13.35;;
53533;SDS011;39421;53.204;6.568;2022-10-31T00:14:28;23.27;;;15.10;;
53533;SDS011;39421;53.204;6.568;2022-10-31T00:16:54;21.85;;;14.18;;
53533;SDS011;39421;53.204;6.568;2022-10-31T00:19:19;22.75;;;14.50;;
53533;SDS011;39421;53.204;6.568;2022-10-31T00:21:45;21.67;;;14.50;;
53533;SDS011;39421;53.204;6.568;2022-10-31T00:24:11;22.43;;;14.43;;
53533;SDS011;39421;53.204;6.568;2022-10-31T00:26:37;22.80;;;14.97;;
53533;SDS011;39421;53.204;6.568;2022-10-31T00:29:02;22.90;;;14.33;;
53533;SDS011;39421;53.204;6.568;2022-10-31T00:31:28;22.93;;;14.67;;
53533;SDS011;39421;53.204;6.568;2022-10-31T00:33:54;23.10;;;15.52;;
53533;SDS011;39421;53.204;6.568;2022-10-31T00:36:20;22.65;;;15.10;;
53533;SDS011;39421;53.204;6.568;2022-10-31T00:38:46;21.33;;;14.77;;
53533;SDS011;39421;53.204;6.568;2022-10-31T00:41:13;23.17;;;15.05;;
53533;SDS011;39421;53.204;6.568;2022-10-31T00:43:43;23.08;;;15.68;;
53533;SDS011;39421;53.204;6.568;2022-10-31T00:46:10;22.85;;;15.38;;
53533;SDS011;39421;53.204;6.568;2022-10-31T00:48:36;21.70;;;14.43;;
53533;SDS011;39421;53.204;6.568;2022-10-31T00:51:02;23.70;;;15.13;;
53533;SDS011;39421;53.204;6.568;2022-10-31T00:53:28;24.03;;;15.27;;
53533;SDS011;39421;53.204;6.568;2022-10-31T00:55:53;21.90;;;14.67;;
53533;SDS011;39421;53.204;6.568;2022-10-31T00:58:19;23.43;;;14.57;;
53533;SDS011;39421;53.204;6.568;2022-10-31T01:00:46;22.02;;;14.05;;
53533;SDS011;39421;53.204;6.568;2022-10-31T01:03:22;21.23;;;14.80;;
53533;SDS011;39421;53.204;6.568;2022-10-31T01:05:55;22.45;;;14.75;;
53533;SDS011;39421;53.204;6.568;2022-10-31T01:08:29;20.00;;;14.52;;
53533;SDS011;39421;53.204;6.568;2022-10-31T01:11:02;21.08;;;14.52;;
53533;SDS011;39421;53.204;6.568;2022-10-31T01:13:30;20.90;;;14.05;;
53533;SDS011;39421;53.204;6.568;2022-10-31T01:15:57;20.58;;;14.30;;
53533;SDS011;39421;53.204;6.568;2022-10-31T01:18:23;21.80;;;14.10;;
53533;SDS011;39421;53.204;6.568;2022-10-31T01:23:29;23.85;;;14.25;;
53533;SDS011;39421;53.204;6.568;2022-10-31T01:25:59;20.23;;;13.90;;
53533;SDS011;39421;53.204;6.568;2022-10-31T01:28:31;22.02;;;13.95;;
53533;SDS011;39421;53.204;6.568;2022-10-31T01:31:01;20.38;;;13.77;;
53533;SDS011;39421;53.204;6.568;2022-10-31T01:33:27;21.80;;;14.27;;
53533;SDS011;39421;53.204;6.568;2022-10-31T01:35:53;19.05;;;13.70;;
53533;SDS011;39421;53.204;6.568;2022-10-31T01:38:19;20.55;;;14.57;;
53533;SDS011;39421;53.204;6.568;2022-10-31T01:40:44;22.63;;;13.67;;
53533;SDS011;39421;53.204;6.568;2022-10-31T01:43:13;24.50;;;14.43;;
53533;SDS011;39421;53.204;6.568;2022-10-31T01:45:39;21.13;;;13.50;;
53533;SDS011;39421;53.204;6.568;2022-10-31T01:48:13;21.33;;;13.67;;
53533;SDS011;39421;53.204;6.568;2022-10-31T01:50:41;22.30;;;13.40;;
53533;SDS011;39421;53.204;6.568;2022-10-31T01:53:10;19.97;;;13.60;;
53533;SDS011;39421;53.204;6.568;2022-10-31T01:55:40;21.17;;;12.80;;
53533;SDS011;39421;53.204;6.568;2022-10-31T01:58:15;18.58;;;12.77;;
53533;SDS011;39421;53.204;6.568;2022-10-31T02:00:45;20.40;;;12.68;;
53533;SDS011;39421;53.204;6.568;2022-10-31T02:03:13;22.42;;;12.85;;
53533;SDS011;39421;53.204;6.568;2022-10-31T02:05:40;21.70;;;13.07;;
53533;SDS011;39421;53.204;6.568;2022-10-31T02:10:37;17.50;;;12.60;;
53533;SDS011;39421;53.204;6.568;2022-10-31T02:13:04;18.50;;;12.75;;
53533;SDS011;39421;53.204;6.568;2022-10-31T02:15:32;23.33;;;13.45;;
53533;SDS011;39421;53.204;6.568;2022-10-31T02:17:59;18.98;;;12.93;;
53533;SDS011;39421;53.204;6.568;2022-10-31T02:20:27;20.55;;;12.65;;
53533;SDS011;39421;53.204;6.568;2022-10-31T02:23:10;21.45;;;13.23;;
53533;SDS011;39421;53.204;6.568;2022-10-31T02:28:34;21.42;;;13.35;;
53533;SDS011;39421;53.204;6.568;2022-10-31T02:31:17;18.75;;;13.30;;
53533;SDS011;39421;53.204;6.568;2022-10-31T02:34:31;20.95;;;13.23;;
53533;SDS011;39421;53.204;6.568;2022-10-31T02:45:00;23.30;;;14.73;;
53533;SDS011;39421;53.204;6.568;2022-10-31T02:47:29;23.38;;;13.77;;
53533;SDS011;39421;53.204;6.568;2022-10-31T02:50:12;19.75;;;13.40;;
53533;SDS011;39421;53.204;6.568;2022-10-31T02:52:43;20.48;;;14.00;;
53533;SDS011;39421;53.204;6.568;2022-10-31T02:55:10;21.65;;;13.75;;
53533;SDS011;39421;53.204;6.568;2022-10-31T02:57:47;22.92;;;14.20;;
53533;SDS011;39421;53.204;6.568;2022-10-31T03:00:14;21.25;;;14.18;;
53533;SDS011;39421;53.204;6.568;2022-10-31T03:10:43;21.63;;;14.13;;
53533;SDS011;39421;53.204;6.568;2022-10-31T03:13:13;22.98;;;14.35;;
53533;SDS011;39421;53.204;6.568;2022-10-31T03:15:43;20.73;;;14.00;;
53533;SDS011;39421;53.204;6.568;2022-10-31T03:20:56;18.63;;;13.47;;
53533;SDS011;39421;53.204;6.568;2022-10-31T03:23:25;22.67;;;13.98;;
53533;SDS011;39421;53.204;6.568;2022-10-31T03:25:53;21.40;;;14.07;;
53533;SDS011;39421;53.204;6.568;2022-10-31T03:28:22;21.65;;;13.98;;
53533;SDS011;39421;53.204;6.568;2022-10-31T03:30:52;20.90;;;14.20;;
53533;SDS011;39421;53.204;6.568;2022-10-31T03:33:21;21.38;;;13.95;;
53533;SDS011;39421;53.204;6.568;2022-10-31T03:35:53;19.40;;;13.50;;
53533;SDS011;39421;53.204;6.568;2022-10-31T03:38:22;23.15;;;14.05;;
53533;SDS011;39421;53.204;6.568;2022-10-31T03:40:48;21.63;;;13.73;;
53533;SDS011;39421;53.204;6.568;2022-10-31T03:43:19;20.67;;;13.10;;
53533;SDS011;39421;53.204;6.568;2022-10-31T03:45:49;21.67;;;13.95;;
53533;SDS011;39421;53.204;6.568;2022-10-31T03:48:16;19.63;;;13.47;;
53533;SDS011;39421;53.204;6.568;2022-10-31T03:53:45;22.17;;;14.18;;
53533;SDS011;39421;53.204;6.568;2022-10-31T03:56:42;21.67;;;13.63;;
53533;SDS011;39421;53.204;6.568;2022-10-31T03:59:23;18.27;;;13.23;;
53533;SDS011;39421;53.204;6.568;2022-10-31T04:02:00;21.23;;;13.93;;
53533;SDS011;39421;53.204;6.568;2022-10-31T04:04:30;19.60;;;12.75;;
53533;SDS011;39421;53.204;6.568;2022-10-31T04:06:57;17.63;;;12.17;;
53533;SDS011;39421;53.204;6.568;2022-10-31T04:09:25;18.65;;;12.32;;
53533;SDS011;39421;53.204;6.568;2022-10-31T04:11:53;18.60;;;12.38;;
53533;SDS011;39421;53.204;6.568;2022-10-31T04:14:21;17.30;;;11.95;;
53533;SDS011;39421;53.204;6.568;2022-10-31T04:16:49;19.13;;;12.85;;
53533;SDS011;39421;53.204;6.568;2022-10-31T04:19:15;18.38;;;12.57;;
53533;SDS011;39421;53.204;6.568;2022-10-31T04:21:40;19.27;;;11.90;;
53533;SDS011;39421;53.204;6.568;2022-10-31T04:24:09;15.47;;;11.70;;
53533;SDS011;39421;53.204;6.568;2022-10-31T04:26:35;17.67;;;11.90;;
53533;SDS011;39421;53.204;6.568;2022-10-31T04:29:01;18.55;;;12.35;;
53533;SDS011;39421;53.204;6.568;2022-10-31T04:31:27;17.52;;;12.27;;
53533;SDS011;39421;53.204;6.568;2022-10-31T04:33:52;19.27;;;12.95;;
53533;SDS011;39421;53.204;6.568;2022-10-31T04:36:18;19.33;;;12.18;;
53533;SDS011;39421;53.204;6.568;2022-10-31T04:38:44;18.83;;;13.05;;
53533;SDS011;39421;53.204;6.568;2022-10-31T04:41:09;20.30;;;13.35;;
53533;SDS011;39421;53.204;6.568;2022-10-31T04:43:35;18.95;;;13.00;;
53533;SDS011;39421;53.204;6.568;2022-10-31T04:46:01;19.02;;;12.63;;
53533;SDS011;39421;53.204;6.568;2022-10-31T04:48:26;19.20;;;13.13;;
53533;SDS011;39421;53.204;6.568;2022-10-31T04:50:52;18.30;;;12.18;;
53533;SDS011;39421;53.204;6.568;2022-10-31T04:53:18;19.03;;;12.70;;
53533;SDS011;39421;53.204;6.568;2022-10-31T04:55:43;20.43;;;13.17;;
53533;SDS011;39421;53.204;6.568;2022-10-31T04:58:09;19.03;;;13.63;;
53533;SDS011;39421;53.204;6.568;2022-10-31T05:00:34;20.83;;;13.53;;
53533;SDS011;39421;53.204;6.568;2022-10-31T05:03:00;19.70;;;13.90;;
53533;SDS011;39421;53.204;6.568;2022-10-31T05:05:30;20.25;;;13.65;;
53533;SDS011;39421;53.204;6.568;2022-10-31T05:07:56;20.75;;;13.63;;
53533;SDS011;39421;53.204;6.568;2022-10-31T05:10:26;20.15;;;14.07;;
53533;SDS011;39421;53.204;6.568;2022-10-31T05:12:53;21.20;;;13.52;;
53533;SDS011;39421;53.204;6.568;2022-10-31T05:15:21;19.15;;;13.40;;
53533;SDS011;39421;53.204;6.568;2022-10-31T05:17:48;18.65;;;14.10;;
53533;SDS011;39421;53.204;6.568;2022-10-31T05:20:15;21.13;;;13.87;;
53533;SDS011;39421;53.204;6.568;2022-10-31T05:22:43;19.52;;;13.27;;
53533;SDS011;39421;53.204;6.568;2022-10-31T05:25:09;18.42;;;13.75;;
53533;SDS011;39421;53.204;6.568;2022-10-31T05:27:38;19.65;;;13.77;;
53533;SDS011;39421;53.204;6.568;2022-10-31T05:30:08;23.48;;;14.35;;
53533;SDS011;39421;53.204;6.568;2022-10-31T05:32:45;21.23;;;13.98;;
53533;SDS011;39421;53.204;6.568;2022-10-31T05:35:12;21.08;;;14.25;;
53533;SDS011;39421;53.204;6.568;2022-10-31T05:37:40;19.30;;;14.52;;
53533;SDS011;39421;53.204;6.568;2022-10-31T05:40:06;22.00;;;14.30;;
53533;SDS011;39421;53.204;6.568;2022-10-31T05:42:35;17.85;;;13.27;;
53533;SDS011;39421;53.204;6.568;2022-10-31T05:45:01;18.70;;;14.40;;
53533;SDS011;39421;53.204;6.568;2022-10-31T05:47:26;19.17;;;14.20;;
53533;SDS011;39421;53.204;6.568;2022-10-31T05:49:52;19.60;;;13.93;;
53533;SDS011;39421;53.204;6.568;2022-10-31T05:52:18;19.70;;;14.65;;
53533;SDS011;39421;53.204;6.568;2022-10-31T05:54:44;19.40;;;14.65;;
53533;SDS011;39421;53.204;6.568;2022-10-31T05:57:09;19.48;;;13.82;;
53533;SDS011;39421;53.204;6.568;2022-10-31T05:59:35;19.73;;;14.23;;
53533;SDS011;39421;53.204;6.568;2022-10-31T06:02:01;18.05;;;14.20;;
53533;SDS011;39421;53.204;6.568;2022-10-31T06:04:27;20.23;;;14.25;;
53533;SDS011;39421;53.204;6.568;2022-10-31T06:06:52;20.05;;;13.98;;
53533;SDS011;39421;53.204;6.568;2022-10-31T06:09:18;20.42;;;14.80;;
53533;SDS011;39421;53.204;6.568;2022-10-31T06:11:44;21.25;;;14.85;;
53533;SDS011;39421;53.204;6.568;2022-10-31T06:14:09;20.20;;;14.50;;
53533;SDS011;39421;53.204;6.568;2022-10-31T06:16:35;18.48;;;14.23;;
53533;SDS011;39421;53.204;6.568;2022-10-31T06:19:00;19.40;;;14.47;;
53533;SDS011;39421;53.204;6.568;2022-10-31T06:21:26;21.77;;;15.00;;
53533;SDS011;39421;53.204;6.568;2022-10-31T06:23:52;18.70;;;14.23;;
53533;SDS011;39421;53.204;6.568;2022-10-31T06:26:17;19.77;;;13.83;;
53533;SDS011;39421;53.204;6.568;2022-10-31T06:28:43;17.97;;;13.73;;
53533;SDS011;39421;53.204;6.568;2022-10-31T06:31:09;20.67;;;14.30;;
53533;SDS011;39421;53.204;6.568;2022-10-31T06:33:34;21.20;;;14.57;;
53533;SDS011;39421;53.204;6.568;2022-10-31T06:36:00;21.03;;;14.60;;
53533;SDS011;39421;53.204;6.568;2022-10-31T06:38:26;19.90;;;14.20;;
53533;SDS011;39421;53.204;6.568;2022-10-31T06:40:53;19.23;;;14.00;;
53533;SDS011;39421;53.204;6.568;2022-10-31T06:43:20;17.83;;;13.93;;
53533;SDS011;39421;53.204;6.568;2022-10-31T06:45:46;18.42;;;13.10;;
53533;SDS011;39421;53.204;6.568;2022-10-31T06:48:12;16.98;;;12.38;;
53533;SDS011;39421;53.204;6.568;2022-10-31T06:50:37;19.33;;;13.03;;
53533;SDS011;39421;53.204;6.568;2022-10-31T06:53:03;16.47;;;11.83;;
53533;SDS011;39421;53.204;6.568;2022-10-31T06:55:29;17.97;;;12.40;;
53533;SDS011;39421;53.204;6.568;2022-10-31T06:57:55;16.73;;;12.45;;
53533;SDS011;39421;53.204;6.568;2022-10-31T07:00:23;18.95;;;12.43;;
53533;SDS011;39421;53.204;6.568;2022-10-31T07:03:23;17.35;;;12.85;;
53533;SDS011;39421;53.204;6.568;2022-10-31T07:05:42;16.75;;;12.75;;
53533;SDS011;39421;53.204;6.568;2022-10-31T07:08:10;20.17;;;12.85;;
53533;SDS011;39421;53.204;6.568;2022-10-31T07:10:37;17.10;;;12.57;;
53533;SDS011;39421;53.204;6.568;2022-10-31T07:13:08;16.10;;;11.65;;
53533;SDS011;39421;53.204;6.568;2022-10-31T07:15:38;16.60;;;12.27;;
53533;SDS011;39421;53.204;6.568;2022-10-31T07:18:06;15.63;;;11.68;;
53533;SDS011;39421;53.204;6.568;2022-10-31T07:20:33;16.70;;;12.07;;
53533;SDS011;39421;53.204;6.568;2022-10-31T07:22:59;16.05;;;12.20;;
53533;SDS011;39421;53.204;6.568;2022-10-31T07:25:25;16.55;;;12.40;;
53533;SDS011;39421;53.204;6.568;2022-10-31T07:27:51;17.15;;;12.07;;
53533;SDS011;39421;53.204;6.568;2022-10-31T07:30:17;15.13;;;12.48;;
53533;SDS011;39421;53.204;6.568;2022-10-31T07:32:44;15.98;;;11.95;;
53533;SDS011;39421;53.204;6.568;2022-10-31T07:35:12;17.73;;;12.20;;
53533;SDS011;39421;53.204;6.568;2022-10-31T07:37:43;17.90;;;11.55;;
53533;SDS011;39421;53.204;6.568;2022-10-31T07:40:09;15.23;;;11.80;;
53533;SDS011;39421;53.204;6.568;2022-10-31T07:42:35;16.45;;;11.63;;
53533;SDS011;39421;53.204;6.568;2022-10-31T07:45:02;14.55;;;10.82;;
53533;SDS011;39421;53.204;6.568;2022-10-31T07:47:29;15.27;;;11.27;;
53533;SDS011;39421;53.204;6.568;2022-10-31T07:49:54;15.57;;;11.48;;
53533;SDS011;39421;53.204;6.568;2022-10-31T07:52:20;15.90;;;11.57;;
53533;SDS011;39421;53.204;6.568;2022-10-31T07:54:46;16.23;;;12.27;;
53533;SDS011;39421;53.204;6.568;2022-10-31T07:57:11;15.37;;;10.80;;
53533;SDS011;39421;53.204;6.568;2022-10-31T07:59:37;16.73;;;11.70;;
53533;SDS011;39421;53.204;6.568;2022-10-31T08:02:02;15.20;;;11.13;;
53533;SDS011;39421;53.204;6.568;2022-10-31T08:04:28;16.63;;;12.37;;
53533;SDS011;39421;53.204;6.568;2022-10-31T08:06:54;14.90;;;11.40;;
53533;SDS011;39421;53.204;6.568;2022-10-31T08:09:19;15.90;;;11.60;;
53533;SDS011;39421;53.204;6.568;2022-10-31T08:11:45;15.23;;;11.13;;
53533;SDS011;39421;53.204;6.568;2022-10-31T08:14:11;13.93;;;10.98;;
53533;SDS011;39421;53.204;6.568;2022-10-31T08:16:36;14.68;;;10.85;;
53533;SDS011;39421;53.204;6.568;2022-10-31T08:19:02;15.57;;;10.50;;
53533;SDS011;39421;53.204;6.568;2022-10-31T08:21:28;15.37;;;11.33;;
53533;SDS011;39421;53.204;6.568;2022-10-31T08:23:53;15.93;;;11.40;;
53533;SDS011;39421;53.204;6.568;2022-10-31T08:26:19;13.93;;;11.03;;
53533;SDS011;39421;53.204;6.568;2022-10-31T08:28:45;13.87;;;11.37;;
53533;SDS011;39421;53.204;6.568;2022-10-31T08:31:11;14.52;;;11.38;;
53533;SDS011;39421;53.204;6.568;2022-10-31T08:33:37;15.50;;;11.02;;
53533;SDS011;39421;53.204;6.568;2022-10-31T08:36:02;13.60;;;10.95;;
53533;SDS011;39421;53.204;6.568;2022-10-31T08:38:28;14.23;;;11.07;;
53533;SDS011;39421;53.204;6.568;2022-10-31T08:40:54;14.80;;;11.30;;
53533;SDS011;39421;53.204;6.568;2022-10-31T08:43:20;14.13;;;10.82;;
53533;SDS011;39421;53.204;6.568;2022-10-31T08:45:47;15.90;;;11.25;;
53533;SDS011;39421;53.204;6.568;2022-10-31T08:48:14;15.30;;;11.10;;
53533;SDS011;39421;53.204;6.568;2022-10-31T08:50:42;12.27;;;9.80;;
53533;SDS011;39421;53.204;6.568;2022-10-31T08:53:10;13.63;;;10.55;;
53533;SDS011;39421;53.204;6.568;2022-10-31T08:55:41;13.32;;;9.73;;
53533;SDS011;39421;53.204;6.568;2022-10-31T08:58:10;13.30;;;9.97;;
53533;SDS011;39421;53.204;6.568;2022-10-31T09:00:46;12.00;;;9.90;;
53533;SDS011;39421;53.204;6.568;2022-10-31T09:03:14;13.57;;;11.07;;
53533;SDS011;39421;53.204;6.568;2022-10-31T09:05:45;12.98;;;10.35;;
53533;SDS011;39421;53.204;6.568;2022-10-31T09:08:12;13.37;;;9.30;;
53533;SDS011;39421;53.204;6.568;2022-10-31T09:10:38;13.75;;;9.98;;
53533;SDS011;39421;53.204;6.568;2022-10-31T09:13:08;13.57;;;9.67;;
53533;SDS011;39421;53.204;6.568;2022-10-31T09:15:36;12.60;;;9.55;;
53533;SDS011;39421;53.204;6.568;2022-10-31T09:18:04;12.97;;;9.47;;
53533;SDS011;39421;53.204;6.568;2022-10-31T09:20:31;11.18;;;9.32;;
53533;SDS011;39421;53.204;6.568;2022-10-31T09:22:58;12.50;;;9.43;;
53533;SDS011;39421;53.204;6.568;2022-10-31T09:25:25;12.67;;;9.57;;
53533;SDS011;39421;53.204;6.568;2022-10-31T09:27:54;14.32;;;9.38;;
53533;SDS011;39421;53.204;6.568;2022-10-31T09:30:22;13.43;;;9.73;;
53533;SDS011;39421;53.204;6.568;2022-10-31T09:32:48;12.10;;;9.40;;
53533;SDS011;39421;53.204;6.568;2022-10-31T09:35:19;12.55;;;9.13;;
53533;SDS011;39421;53.204;6.568;2022-10-31T09:37:45;13.75;;;9.68;;
53533;SDS011;39421;53.204;6.568;2022-10-31T09:40:10;14.03;;;8.53;;
53533;SDS011;39421;53.204;6.568;2022-10-31T09:46:01;11.07;;;8.30;;
53533;SDS011;39421;53.204;6.568;2022-10-31T09:51:21;12.30;;;8.57;;
53533;SDS011;39421;53.204;6.568;2022-10-31T09:54:01;11.50;;;8.63;;
53533;SDS011;39421;53.204;6.568;2022-10-31T09:56:46;11.45;;;8.63;;
53533;SDS011;39421;53.204;6.568;2022-10-31T09:59:25;11.88;;;8.77;;
53533;SDS011;39421;53.204;6.568;2022-10-31T10:02:13;11.48;;;8.90;;
53533;SDS011;39421;53.204;6.568;2022-10-31T10:10:02;11.88;;;8.65;;
53533;SDS011;39421;53.204;6.568;2022-10-31T10:15:51;12.15;;;8.55;;
53533;SDS011;39421;53.204;6.568;2022-10-31T10:30:02;12.00;;;9.10;;
53533;SDS011;39421;53.204;6.568;2022-10-31T10:37:55;11.43;;;9.35;;
53533;SDS011;39421;53.204;6.568;2022-10-31T10:40:25;13.77;;;10.02;;
53533;SDS011;39421;53.204;6.568;2022-10-31T10:51:46;14.43;;;10.90;;
53533;SDS011;39421;53.204;6.568;2022-10-31T10:57:11;16.48;;;12.38;;
53533;SDS011;39421;53.204;6.568;2022-10-31T10:59:55;16.80;;;11.85;;
53533;SDS011;39421;53.204;6.568;2022-10-31T11:02:25;15.18;;;11.70;;
53533;SDS011;39421;53.204;6.568;2022-10-31T11:04:56;14.88;;;10.55;;
53533;SDS011;39421;53.204;6.568;2022-10-31T11:07:23;13.60;;;9.85;;
53533;SDS011;39421;53.204;6.568;2022-10-31T11:09:49;13.88;;;10.07;;
53533;SDS011;39421;53.204;6.568;2022-10-31T11:14:47;13.45;;;9.82;;
53533;SDS011;39421;53.204;6.568;2022-10-31T11:17:34;14.98;;;9.93;;
53533;SDS011;39421;53.204;6.568;2022-10-31T11:22:37;13.52;;;9.80;;
53533;SDS011;39421;53.204;6.568;2022-10-31T11:27:45;12.15;;;9.88;;
53533;SDS011;39421;53.204;6.568;2022-10-31T11:30:12;13.83;;;9.70;;
53533;SDS011;39421;53.204;6.568;2022-10-31T11:32:47;10.90;;;8.07;;
53533;SDS011;39421;53.204;6.568;2022-10-31T11:35:17;12.10;;;8.30;;
53533;SDS011;39421;53.204;6.568;2022-10-31T11:37:46;11.65;;;7.95;;
53533;SDS011;39421;53.204;6.568;2022-10-31T11:40:16;12.85;;;8.13;;
53533;SDS011;39421;53.204;6.568;2022-10-31T11:42:44;10.07;;;7.28;;
53533;SDS011;39421;53.204;6.568;2022-10-31T11:45:17;10.40;;;7.40;;
53533;SDS011;39421;53.204;6.568;2022-10-31T11:47:47;10.73;;;6.77;;
53533;SDS011;39421;53.204;6.568;2022-10-31T11:50:19;9.60;;;6.38;;
53533;SDS011;39421;53.204;6.568;2022-10-31T11:52:48;10.32;;;6.63;;
53533;SDS011;39421;53.204;6.568;2022-10-31T11:58:02;10.27;;;6.30;;
53533;SDS011;39421;53.204;6.568;2022-10-31T12:01:20;8.77;;;5.65;;
53533;SDS011;39421;53.204;6.568;2022-10-31T12:08:33;9.18;;;5.20;;
53533;SDS011;39421;53.204;6.568;2022-10-31T12:16:17;7.95;;;4.80;;
53533;SDS011;39421;53.204;6.568;2022-10-31T12:21:21;8.25;;;5.32;;
53533;SDS011;39421;53.204;6.568;2022-10-31T12:24:28;7.60;;;5.10;;
53533;SDS011;39421;53.204;6.568;2022-10-31T12:29:47;9.38;;;5.70;;
53533;SDS011;39421;53.204;6.568;2022-10-31T12:45:57;10.02;;;5.63;;
53533;SDS011;39421;53.204;6.568;2022-10-31T12:56:29;10.13;;;5.30;;
53533;SDS011;39421;53.204;6.568;2022-10-31T13:04:46;7.80;;;4.20;;
53533;SDS011;39421;53.204;6.568;2022-10-31T13:07:25;9.75;;;4.65;;
53533;SDS011;39421;53.204;6.568;2022-10-31T13:10:01;8.02;;;4.15;;
53533;SDS011;39421;53.204;6.568;2022-10-31T13:13:11;7.87;;;4.90;;
53533;SDS011;39421;53.204;6.568;2022-10-31T13:16:08;7.38;;;4.70;;
53533;SDS011;39421;53.204;6.568;2022-10-31T13:18:51;8.63;;;4.28;;
53533;SDS011;39421;53.204;6.568;2022-10-31T13:21:21;7.20;;;4.00;;
53533;SDS011;39421;53.204;6.568;2022-10-31T13:23:51;7.45;;;3.83;;
53533;SDS011;39421;53.204;6.568;2022-10-31T13:31:43;8.23;;;4.30;;
53533;SDS011;39421;53.204;6.568;2022-10-31T13:37:17;8.05;;;4.18;;
53533;SDS011;39421;53.204;6.568;2022-10-31T13:42:55;9.38;;;4.18;;
53533;SDS011;39421;53.204;6.568;2022-10-31T13:45:46;7.32;;;4.13;;
53533;SDS011;39421;53.204;6.568;2022-10-31T13:50:40;7.13;;;4.20;;
53533;SDS011;39421;53.204;6.568;2022-10-31T13:55:42;5.32;;;3.63;;
53533;SDS011;39421;53.204;6.568;2022-10-31T13:58:23;7.60;;;3.70;;
53533;SDS011;39421;53.204;6.568;2022-10-31T14:03:38;7.22;;;3.83;;
53533;SDS011;39421;53.204;6.568;2022-10-31T14:06:05;8.02;;;4.30;;
53533;SDS011;39421;53.204;6.568;2022-10-31T14:08:34;8.32;;;3.95;;
53533;SDS011;39421;53.204;6.568;2022-10-31T14:11:06;8.80;;;4.47;;
53533;SDS011;39421;53.204;6.568;2022-10-31T14:19:04;11.75;;;4.68;;
53533;SDS011;39421;53.204;6.568;2022-10-31T14:24:16;8.68;;;4.30;;
53533;SDS011;39421;53.204;6.568;2022-10-31T14:26:57;9.25;;;4.78;;
53533;SDS011;39421;53.204;6.568;2022-10-31T14:29:28;10.63;;;4.80;;
53533;SDS011;39421;53.204;6.568;2022-10-31T14:32:43;9.35;;;4.70;;
53533;SDS011;39421;53.204;6.568;2022-10-31T14:34:52;11.63;;;5.20;;
53533;SDS011;39421;53.204;6.568;2022-10-31T14:51:00;9.77;;;5.10;;
53533;SDS011;39421;53.204;6.568;2022-10-31T14:53:33;11.13;;;5.65;;
53533;SDS011;39421;53.204;6.568;2022-10-31T14:56:02;8.95;;;5.00;;
53533;SDS011;39421;53.204;6.568;2022-10-31T14:58:44;11.02;;;5.43;;
53533;SDS011;39421;53.204;6.568;2022-10-31T15:01:19;9.93;;;5.13;;
53533;SDS011;39421;53.204;6.568;2022-10-31T15:04:02;10.52;;;5.63;;
53533;SDS011;39421;53.204;6.568;2022-10-31T15:06:42;8.82;;;4.88;;
53533;SDS011;39421;53.204;6.568;2022-10-31T15:09:24;11.82;;;5.68;;
53533;SDS011;39421;53.204;6.568;2022-10-31T15:11:51;9.95;;;5.15;;
53533;SDS011;39421;53.204;6.568;2022-10-31T15:14:24;10.83;;;5.37;;
53533;SDS011;39421;53.204;6.568;2022-10-31T15:16:56;10.73;;;5.47;;
53533;SDS011;39421;53.204;6.568;2022-10-31T15:19:24;8.37;;;5.40;;
53533;SDS011;39421;53.204;6.568;2022-10-31T15:21:51;10.30;;;5.75;;
53533;SDS011;39421;53.204;6.568;2022-10-31T15:24:19;11.05;;;5.57;;
53533;SDS011;39421;53.204;6.568;2022-10-31T15:26:47;10.13;;;4.78;;
53533;SDS011;39421;53.204;6.568;2022-10-31T15:29:19;8.18;;;5.10;;
53533;SDS011;39421;53.204;6.568;2022-10-31T15:31:53;8.68;;;4.93;;
53533;SDS011;39421;53.204;6.568;2022-10-31T15:34:41;9.45;;;5.28;;
53533;SDS011;39421;53.204;6.568;2022-10-31T15:37:13;10.80;;;5.80;;
53533;SDS011;39421;53.204;6.568;2022-10-31T15:39:44;8.95;;;5.70;;
53533;SDS011;39421;53.204;6.568;2022-10-31T15:42:53;10.43;;;5.63;;
53533;SDS011;39421;53.204;6.568;2022-10-31T15:48:23;12.23;;;6.13;;
53533;SDS011;39421;53.204;6.568;2022-10-31T15:50:50;11.35;;;6.40;;
53533;SDS011;39421;53.204;6.568;2022-10-31T15:53:21;11.87;;;6.47;;
53533;SDS011;39421;53.204;6.568;2022-10-31T15:55:51;11.60;;;6.80;;
53533;SDS011;39421;53.204;6.568;2022-10-31T15:58:29;13.27;;;7.45;;
53533;SDS011;39421;53.204;6.568;2022-10-31T16:00:58;11.05;;;6.75;;
53533;SDS011;39421;53.204;6.568;2022-10-31T16:03:29;10.35;;;6.90;;
53533;SDS011;39421;53.204;6.568;2022-10-31T16:05:57;11.10;;;7.03;;
53533;SDS011;39421;53.204;6.568;2022-10-31T16:10:53;12.40;;;7.60;;
53533;SDS011;39421;53.204;6.568;2022-10-31T16:13:28;13.15;;;7.82;;
53533;SDS011;39421;53.204;6.568;2022-10-31T16:16:00;13.02;;;7.72;;
53533;SDS011;39421;53.204;6.568;2022-10-31T16:18:27;11.13;;;7.05;;
53533;SDS011;39421;53.204;6.568;2022-10-31T16:20:55;11.82;;;7.65;;
53533;SDS011;39421;53.204;6.568;2022-10-31T16:23:22;13.05;;;7.82;;
53533;SDS011;39421;53.204;6.568;2022-10-31T16:25:51;11.63;;;6.90;;
53533;SDS011;39421;53.204;6.568;2022-10-31T16:28:18;12.10;;;6.95;;
53533;SDS011;39421;53.204;6.568;2022-10-31T16:30:50;11.10;;;7.25;;
53533;SDS011;39421;53.204;6.568;2022-10-31T16:33:22;10.82;;;6.70;;
53533;SDS011;39421;53.204;6.568;2022-10-31T16:35:56;11.75;;;6.97;;
53533;SDS011;39421;53.204;6.568;2022-10-31T16:38:22;11.32;;;6.50;;
53533;SDS011;39421;53.204;6.568;2022-10-31T16:40:49;10.60;;;6.60;;
53533;SDS011;39421;53.204;6.568;2022-10-31T16:43:16;9.45;;;6.53;;
53533;SDS011;39421;53.204;6.568;2022-10-31T16:45:44;10.65;;;6.65;;
53533;SDS011;39421;53.204;6.568;2022-10-31T16:48:12;10.30;;;7.10;;
53533;SDS011;39421;53.204;6.568;2022-10-31T16:50:41;10.85;;;6.72;;
53533;SDS011;39421;53.204;6.568;2022-10-31T16:53:08;10.47;;;7.03;;
53533;SDS011;39421;53.204;6.568;2022-10-31T16:55:40;8.73;;;6.53;;
53533;SDS011;39421;53.204;6.568;2022-10-31T16:58:12;11.65;;;6.70;;
53533;SDS011;39421;53.204;6.568;2022-10-31T17:00:47;9.07;;;6.43;;
53533;SDS011;39421;53.204;6.568;2022-10-31T17:03:13;10.63;;;6.28;;
53533;SDS011;39421;53.204;6.568;2022-10-31T17:05:39;8.77;;;6.15;;
53533;SDS011;39421;53.204;6.568;2022-10-31T17:08:04;9.82;;;6.20;;
53533;SDS011;39421;53.204;6.568;2022-10-31T17:10:30;10.18;;;6.22;;
53533;SDS011;39421;53.204;6.568;2022-10-31T17:12:56;10.40;;;6.65;;
53533;SDS011;39421;53.204;6.568;2022-10-31T17:15:24;9.00;;;6.20;;
53533;SDS011;39421;53.204;6.568;2022-10-31T17:17:52;9.07;;;6.72;;
53533;SDS011;39421;53.204;6.568;2022-10-31T17:20:20;10.45;;;6.65;;
53533;SDS011;39421;53.204;6.568;2022-10-31T17:22:46;10.38;;;7.00;;
53533;SDS011;39421;53.204;6.568;2022-10-31T17:25:12;12.67;;;7.10;;
53533;SDS011;39421;53.204;6.568;2022-10-31T17:27:41;10.20;;;7.50;;
53533;SDS011;39421;53.204;6.568;2022-10-31T17:30:07;11.60;;;7.82;;
53533;SDS011;39421;53.204;6.568;2022-10-31T17:32:35;10.75;;;7.63;;
53533;SDS011;39421;53.204;6.568;2022-10-31T17:35:01;13.65;;;8.82;;
53533;SDS011;39421;53.204;6.568;2022-10-31T17:37:27;13.05;;;8.43;;